sensor_id;sensor_type;location;lat;lon;timestamp;temperature;humidity
56046;DHT22;41913;51.030;3.706;2023-06-24T00:01:06;23.60;83.70
56046;DHT22;41913;51.030;3.706;2023-06-24T00:03:33;23.60;83.80
56046;DHT22;41913;51.030;3.706;2023-06-24T00:06:02;23.50;83.80
56046;DHT22;41913;51.030;3.706;2023-06-24T00:08:28;23.50;83.90
56046;DHT22;41913;51.030;3.706;2023-06-24T00:11:02;23.50;83.90
56046;DHT22;41913;51.030;3.706;2023-06-24T00:13:29;23.50;84.00
56046;DHT22;41913;51.030;3.706;2023-06-24T00:15:55;23.50;84.10
56046;DHT22;41913;51.030;3.706;2023-06-24T00:18:23;23.50;84.30
56046;DHT22;41913;51.030;3.706;2023-06-24T00:20:50;23.40;84.30
56046;DHT22;41913;51.030;3.706;2023-06-24T00:23:18;23.40;84.40
56046;DHT22;41913;51.030;3.706;2023-06-24T00:25:52;23.50;84.50
56046;DHT22;41913;51.030;3.706;2023-06-24T00:28:17;23.50;84.60
56046;DHT22;41913;51.030;3.706;2023-06-24T00:30:44;23.50;84.20
56046;DHT22;41913;51.030;3.706;2023-06-24T00:33:11;23.50;84.00
56046;DHT22;41913;51.030;3.706;2023-06-24T00:35:42;23.40;84.00
56046;DHT22;41913;51.030;3.706;2023-06-24T00:38:09;23.40;84.20
56046;DHT22;41913;51.030;3.706;2023-06-24T00:40:38;23.30;84.60
56046;DHT22;41913;51.030;3.706;2023-06-24T00:43:06;23.30;84.10
56046;DHT22;41913;51.030;3.706;2023-06-24T00:45:33;23.30;84.10
56046;DHT22;41913;51.030;3.706;2023-06-24T00:48:00;23.30;84.10
56046;DHT22;41913;51.030;3.706;2023-06-24T00:50:27;23.30;84.80
56046;DHT22;41913;51.030;3.706;2023-06-24T00:52:53;23.20;84.10
56046;DHT22;41913;51.030;3.706;2023-06-24T00:55:21;23.20;84.00
56046;DHT22;41913;51.030;3.706;2023-06-24T00:57:49;23.20;84.10
56046;DHT22;41913;51.030;3.706;2023-06-24T01:00:18;23.20;84.10
56046;DHT22;41913;51.030;3.706;2023-06-24T01:02:48;23.20;84.30
56046;DHT22;41913;51.030;3.706;2023-06-24T01:05:15;23.20;84.30
56046;DHT22;41913;51.030;3.706;2023-06-24T01:07:42;23.20;84.50
56046;DHT22;41913;51.030;3.706;2023-06-24T01:10:10;23.20;84.80
56046;DHT22;41913;51.030;3.706;2023-06-24T01:12:39;23.20;84.60
56046;DHT22;41913;51.030;3.706;2023-06-24T01:15:07;23.20;84.60
56046;DHT22;41913;51.030;3.706;2023-06-24T01:20:39;23.20;84.20
56046;DHT22;41913;51.030;3.706;2023-06-24T01:26:04;23.20;84.50
56046;DHT22;41913;51.030;3.706;2023-06-24T01:29:04;23.20;84.20
56046;DHT22;41913;51.030;3.706;2023-06-24T01:31:51;23.20;84.20
56046;DHT22;41913;51.030;3.706;2023-06-24T01:35:06;23.10;84.30
56046;DHT22;41913;51.030;3.706;2023-06-24T01:37:44;23.10;84.40
56046;DHT22;41913;51.030;3.706;2023-06-24T01:40:15;23.10;84.00
56046;DHT22;41913;51.030;3.706;2023-06-24T01:42:49;23.10;84.20
56046;DHT22;41913;51.030;3.706;2023-06-24T01:45:25;23.00;84.10
56046;DHT22;41913;51.030;3.706;2023-06-24T01:48:00;23.00;84.30
56046;DHT22;41913;51.030;3.706;2023-06-24T01:50:31;23.00;84.50
56046;DHT22;41913;51.030;3.706;2023-06-24T01:52:59;23.00;84.70
56046;DHT22;41913;51.030;3.706;2023-06-24T01:55:28;23.00;84.50
56046;DHT22;41913;51.030;3.706;2023-06-24T01:57:58;23.10;84.40
56046;DHT22;41913;51.030;3.706;2023-06-24T02:00:27;23.00;84.10
56046;DHT22;41913;51.030;3.706;2023-06-24T02:02:53;23.00;84.20
56046;DHT22;41913;51.030;3.706;2023-06-24T02:05:20;22.90;84.00
56046;DHT22;41913;51.030;3.706;2023-06-24T02:07:51;22.90;84.20
56046;DHT22;41913;51.030;3.706;2023-06-24T02:10:21;22.90;84.30
56046;DHT22;41913;51.030;3.706;2023-06-24T02:12:49;22.90;84.30
56046;DHT22;41913;51.030;3.706;2023-06-24T02:15:17;22.90;84.30
56046;DHT22;41913;51.030;3.706;2023-06-24T02:17:46;22.90;84.60
56046;DHT22;41913;51.030;3.706;2023-06-24T02:20:14;22.80;84.60
56046;DHT22;41913;51.030;3.706;2023-06-24T02:22:44;22.90;84.60
56046;DHT22;41913;51.030;3.706;2023-06-24T02:25:10;22.90;84.60
56046;DHT22;41913;51.030;3.706;2023-06-24T02:27:38;22.90;84.60
56046;DHT22;41913;51.030;3.706;2023-06-24T02:30:12;22.90;84.60
56046;DHT22;41913;51.030;3.706;2023-06-24T02:32:39;22.90;85.00
56046;DHT22;41913;51.030;3.706;2023-06-24T02:35:05;22.80;84.40
56046;DHT22;41913;51.030;3.706;2023-06-24T02:37:33;22.80;84.50
56046;DHT22;41913;51.030;3.706;2023-06-24T02:39:59;22.80;84.60
56046;DHT22;41913;51.030;3.706;2023-06-24T02:42:26;22.80;85.30
56046;DHT22;41913;51.030;3.706;2023-06-24T02:44:52;22.80;85.30
56046;DHT22;41913;51.030;3.706;2023-06-24T02:47:20;22.80;85.30
56046;DHT22;41913;51.030;3.706;2023-06-24T02:49:48;22.80;84.90
56046;DHT22;41913;51.030;3.706;2023-06-24T02:52:15;22.80;84.50
56046;DHT22;41913;51.030;3.706;2023-06-24T02:54:44;22.70;84.60
56046;DHT22;41913;51.030;3.706;2023-06-24T02:57:10;22.80;84.80
56046;DHT22;41913;51.030;3.706;2023-06-24T02:59:37;22.80;84.90
56046;DHT22;41913;51.030;3.706;2023-06-24T03:02:04;22.70;84.80
56046;DHT22;41913;51.030;3.706;2023-06-24T03:04:32;22.80;84.80
56046;DHT22;41913;51.030;3.706;2023-06-24T03:06:59;22.80;84.90
56046;DHT22;41913;51.030;3.706;2023-06-24T03:09:27;22.80;84.70
56046;DHT22;41913;51.030;3.706;2023-06-24T03:11:52;22.80;84.60
56046;DHT22;41913;51.030;3.706;2023-06-24T03:14:20;22.80;84.80
56046;DHT22;41913;51.030;3.706;2023-06-24T03:16:46;22.80;84.50
56046;DHT22;41913;51.030;3.706;2023-06-24T03:19:15;22.80;84.60
56046;DHT22;41913;51.030;3.706;2023-06-24T03:21:41;22.60;84.50
56046;DHT22;41913;51.030;3.706;2023-06-24T03:24:10;22.70;84.80
56046;DHT22;41913;51.030;3.706;2023-06-24T03:26:37;22.70;84.60
56046;DHT22;41913;51.030;3.706;2023-06-24T03:29:03;22.70;84.70
56046;DHT22;41913;51.030;3.706;2023-06-24T03:31:30;22.60;84.80
56046;DHT22;41913;51.030;3.706;2023-06-24T03:34:01;22.60;85.00
56046;DHT22;41913;51.030;3.706;2023-06-24T03:36:29;22.50;84.90
56046;DHT22;41913;51.030;3.706;2023-06-24T03:38:55;22.50;85.10
56046;DHT22;41913;51.030;3.706;2023-06-24T03:41:20;22.50;85.30
56046;DHT22;41913;51.030;3.706;2023-06-24T03:43:51;22.50;85.30
56046;DHT22;41913;51.030;3.706;2023-06-24T03:46:18;22.60;85.30
56046;DHT22;41913;51.030;3.706;2023-06-24T03:48:44;22.50;85.30
56046;DHT22;41913;51.030;3.706;2023-06-24T03:51:11;22.60;85.20
56046;DHT22;41913;51.030;3.706;2023-06-24T03:53:39;22.60;85.10
56046;DHT22;41913;51.030;3.706;2023-06-24T03:56:08;22.50;84.90
56046;DHT22;41913;51.030;3.706;2023-06-24T03:58:36;22.50;84.90
56046;DHT22;41913;51.030;3.706;2023-06-24T04:01:03;22.50;84.90
56046;DHT22;41913;51.030;3.706;2023-06-24T04:03:29;22.40;85.20
56046;DHT22;41913;51.030;3.706;2023-06-24T04:05:55;22.30;85.10
56046;DHT22;41913;51.030;3.706;2023-06-24T04:08:23;22.40;85.20
56046;DHT22;41913;51.030;3.706;2023-06-24T04:10:57;22.30;85.20
56046;DHT22;41913;51.030;3.706;2023-06-24T04:13:28;22.30;85.70
56046;DHT22;41913;51.030;3.706;2023-06-24T04:15:56;22.40;85.70
56046;DHT22;41913;51.030;3.706;2023-06-24T04:18:23;22.40;85.50
56046;DHT22;41913;51.030;3.706;2023-06-24T04:20:49;22.30;85.30
56046;DHT22;41913;51.030;3.706;2023-06-24T04:23:18;22.30;85.30
56046;DHT22;41913;51.030;3.706;2023-06-24T04:25:43;22.30;85.40
56046;DHT22;41913;51.030;3.706;2023-06-24T04:28:10;22.30;85.60
56046;DHT22;41913;51.030;3.706;2023-06-24T04:30:37;22.40;85.70
56046;DHT22;41913;51.030;3.706;2023-06-24T04:33:08;22.40;85.60
56046;DHT22;41913;51.030;3.706;2023-06-24T04:35:34;22.50;85.60
56046;DHT22;41913;51.030;3.706;2023-06-24T04:38:01;22.50;85.60
56046;DHT22;41913;51.030;3.706;2023-06-24T04:40:33;22.50;85.60
56046;DHT22;41913;51.030;3.706;2023-06-24T04:43:04;22.50;86.00
56046;DHT22;41913;51.030;3.706;2023-06-24T04:45:34;22.50;85.40
56046;DHT22;41913;51.030;3.706;2023-06-24T04:48:00;22.60;85.40
56046;DHT22;41913;51.030;3.706;2023-06-24T04:50:26;22.60;85.50
56046;DHT22;41913;51.030;3.706;2023-06-24T04:52:53;22.60;85.70
56046;DHT22;41913;51.030;3.706;2023-06-24T04:55:21;22.60;85.60
56046;DHT22;41913;51.030;3.706;2023-06-24T04:57:48;22.60;85.50
56046;DHT22;41913;51.030;3.706;2023-06-24T05:00:14;22.70;85.50
56046;DHT22;41913;51.030;3.706;2023-06-24T05:02:41;22.70;85.60
56046;DHT22;41913;51.030;3.706;2023-06-24T05:05:07;22.70;85.50
56046;DHT22;41913;51.030;3.706;2023-06-24T05:07:35;22.70;85.50
56046;DHT22;41913;51.030;3.706;2023-06-24T05:10:01;22.70;85.40
56046;DHT22;41913;51.030;3.706;2023-06-24T05:12:30;22.80;85.60
56046;DHT22;41913;51.030;3.706;2023-06-24T05:14:59;22.80;85.50
56046;DHT22;41913;51.030;3.706;2023-06-24T05:17:27;22.80;85.50
56046;DHT22;41913;51.030;3.706;2023-06-24T05:19:54;22.80;85.50
56046;DHT22;41913;51.030;3.706;2023-06-24T05:22:22;22.80;85.40
56046;DHT22;41913;51.030;3.706;2023-06-24T05:24:48;22.80;85.50
56046;DHT22;41913;51.030;3.706;2023-06-24T05:27:14;22.80;85.40
56046;DHT22;41913;51.030;3.706;2023-06-24T05:29:43;22.80;85.40
56046;DHT22;41913;51.030;3.706;2023-06-24T05:32:10;22.80;85.40
56046;DHT22;41913;51.030;3.706;2023-06-24T05:34:38;22.80;85.50
56046;DHT22;41913;51.030;3.706;2023-06-24T05:37:05;22.80;85.50
56046;DHT22;41913;51.030;3.706;2023-06-24T05:39:33;22.80;85.40
56046;DHT22;41913;51.030;3.706;2023-06-24T05:41:59;22.70;85.40
56046;DHT22;41913;51.030;3.706;2023-06-24T05:44:25;22.70;85.50
56046;DHT22;41913;51.030;3.706;2023-06-24T05:46:55;22.70;86.20
56046;DHT22;41913;51.030;3.706;2023-06-24T05:49:22;22.70;85.60
56046;DHT22;41913;51.030;3.706;2023-06-24T05:51:48;22.70;85.80
56046;DHT22;41913;51.030;3.706;2023-06-24T05:54:15;22.80;85.70
56046;DHT22;41913;51.030;3.706;2023-06-24T05:56:41;22.70;85.70
56046;DHT22;41913;51.030;3.706;2023-06-24T05:59:10;22.70;85.80
56046;DHT22;41913;51.030;3.706;2023-06-24T06:01:43;22.70;85.90
56046;DHT22;41913;51.030;3.706;2023-06-24T06:04:09;22.70;86.00
56046;DHT22;41913;51.030;3.706;2023-06-24T06:06:37;22.70;86.00
56046;DHT22;41913;51.030;3.706;2023-06-24T06:09:03;22.70;86.00
56046;DHT22;41913;51.030;3.706;2023-06-24T06:11:32;22.70;86.50
56046;DHT22;41913;51.030;3.706;2023-06-24T06:13:58;22.70;86.20
56046;DHT22;41913;51.030;3.706;2023-06-24T06:16:24;22.70;86.30
56046;DHT22;41913;51.030;3.706;2023-06-24T06:18:51;22.70;86.30
56046;DHT22;41913;51.030;3.706;2023-06-24T06:21:19;22.60;86.30
56046;DHT22;41913;51.030;3.706;2023-06-24T06:23:48;22.60;86.50
56046;DHT22;41913;51.030;3.706;2023-06-24T06:26:15;22.60;86.60
56046;DHT22;41913;51.030;3.706;2023-06-24T06:28:41;22.70;86.70
56046;DHT22;41913;51.030;3.706;2023-06-24T06:31:13;22.60;86.80
56046;DHT22;41913;51.030;3.706;2023-06-24T06:33:42;22.60;86.80
56046;DHT22;41913;51.030;3.706;2023-06-24T06:36:08;22.70;87.10
56046;DHT22;41913;51.030;3.706;2023-06-24T06:38:34;22.70;87.20
56046;DHT22;41913;51.030;3.706;2023-06-24T06:41:01;22.70;87.40
56046;DHT22;41913;51.030;3.706;2023-06-24T06:43:27;22.70;87.50
56046;DHT22;41913;51.030;3.706;2023-06-24T06:45:54;22.70;87.50
56046;DHT22;41913;51.030;3.706;2023-06-24T06:48:21;22.70;87.50
56046;DHT22;41913;51.030;3.706;2023-06-24T06:50:49;22.70;87.70
56046;DHT22;41913;51.030;3.706;2023-06-24T06:53:15;22.70;87.70
56046;DHT22;41913;51.030;3.706;2023-06-24T06:55:40;22.60;87.60
56046;DHT22;41913;51.030;3.706;2023-06-24T06:58:10;22.60;87.80
56046;DHT22;41913;51.030;3.706;2023-06-24T07:00:36;22.60;87.80
56046;DHT22;41913;51.030;3.706;2023-06-24T07:03:03;22.70;88.10
56046;DHT22;41913;51.030;3.706;2023-06-24T07:05:29;22.70;87.90
56046;DHT22;41913;51.030;3.706;2023-06-24T07:07:57;22.70;88.10
56046;DHT22;41913;51.030;3.706;2023-06-24T07:10:23;22.70;88.10
56046;DHT22;41913;51.030;3.706;2023-06-24T07:12:49;22.70;88.20
56046;DHT22;41913;51.030;3.706;2023-06-24T07:15:17;22.70;88.30
56046;DHT22;41913;51.030;3.706;2023-06-24T07:17:44;22.70;88.50
56046;DHT22;41913;51.030;3.706;2023-06-24T07:20:10;22.70;88.60
56046;DHT22;41913;51.030;3.706;2023-06-24T07:22:36;22.70;88.60
56046;DHT22;41913;51.030;3.706;2023-06-24T07:25:01;22.70;88.80
56046;DHT22;41913;51.030;3.706;2023-06-24T07:27:28;22.70;88.90
56046;DHT22;41913;51.030;3.706;2023-06-24T07:29:55;22.80;88.90
56046;DHT22;41913;51.030;3.706;2023-06-24T07:32:21;22.80;89.00
56046;DHT22;41913;51.030;3.706;2023-06-24T07:34:49;22.80;88.80
56046;DHT22;41913;51.030;3.706;2023-06-24T07:37:17;22.80;89.50
56046;DHT22;41913;51.030;3.706;2023-06-24T07:39:44;22.80;89.20
56046;DHT22;41913;51.030;3.706;2023-06-24T07:42:11;22.80;89.20
56046;DHT22;41913;51.030;3.706;2023-06-24T07:44:36;22.80;89.70
56046;DHT22;41913;51.030;3.706;2023-06-24T07:47:05;22.80;89.40
56046;DHT22;41913;51.030;3.706;2023-06-24T07:49:31;22.80;89.50
56046;DHT22;41913;51.030;3.706;2023-06-24T07:51:57;22.80;89.60
56046;DHT22;41913;51.030;3.706;2023-06-24T07:54:23;22.80;89.60
56046;DHT22;41913;51.030;3.706;2023-06-24T07:56:51;22.80;89.70
56046;DHT22;41913;51.030;3.706;2023-06-24T07:59:18;22.90;89.90
56046;DHT22;41913;51.030;3.706;2023-06-24T08:01:44;22.90;89.70
56046;DHT22;41913;51.030;3.706;2023-06-24T08:04:10;22.90;89.60
56046;DHT22;41913;51.030;3.706;2023-06-24T08:06:36;23.00;89.90
56046;DHT22;41913;51.030;3.706;2023-06-24T08:09:02;23.00;89.60
56046;DHT22;41913;51.030;3.706;2023-06-24T08:11:27;23.10;89.60
56046;DHT22;41913;51.030;3.706;2023-06-24T08:13:53;23.10;89.60
56046;DHT22;41913;51.030;3.706;2023-06-24T08:16:20;23.10;89.60
56046;DHT22;41913;51.030;3.706;2023-06-24T08:18:46;23.10;89.60
56046;DHT22;41913;51.030;3.706;2023-06-24T08:21:12;23.10;89.50
56046;DHT22;41913;51.030;3.706;2023-06-24T08:23:37;23.20;89.60
56046;DHT22;41913;51.030;3.706;2023-06-24T08:26:03;23.10;89.50
56046;DHT22;41913;51.030;3.706;2023-06-24T08:28:29;23.20;89.10
56046;DHT22;41913;51.030;3.706;2023-06-24T08:30:54;23.20;89.30
56046;DHT22;41913;51.030;3.706;2023-06-24T08:33:21;23.20;89.10
56046;DHT22;41913;51.030;3.706;2023-06-24T08:35:47;23.20;89.30
56046;DHT22;41913;51.030;3.706;2023-06-24T08:38:12;23.20;89.30
56046;DHT22;41913;51.030;3.706;2023-06-24T08:40:39;23.20;89.30
56046;DHT22;41913;51.030;3.706;2023-06-24T08:43:06;23.30;89.40
56046;DHT22;41913;51.030;3.706;2023-06-24T08:45:32;23.30;89.40
56046;DHT22;41913;51.030;3.706;2023-06-24T08:48:00;23.30;89.30
56046;DHT22;41913;51.030;3.706;2023-06-24T08:50:33;23.30;89.20
56046;DHT22;41913;51.030;3.706;2023-06-24T08:53:02;23.30;88.90
56046;DHT22;41913;51.030;3.706;2023-06-24T08:55:31;23.30;89.10
56046;DHT22;41913;51.030;3.706;2023-06-24T08:57:57;23.30;89.40
56046;DHT22;41913;51.030;3.706;2023-06-24T09:00:23;23.40;89.90
56046;DHT22;41913;51.030;3.706;2023-06-24T09:02:49;23.40;90.10
56046;DHT22;41913;51.030;3.706;2023-06-24T09:05:15;23.50;90.60
56046;DHT22;41913;51.030;3.706;2023-06-24T09:07:42;23.50;90.60
56046;DHT22;41913;51.030;3.706;2023-06-24T09:10:08;23.60;90.20
56046;DHT22;41913;51.030;3.706;2023-06-24T09:12:34;23.60;90.10
56046;DHT22;41913;51.030;3.706;2023-06-24T09:15:02;23.60;90.50
56046;DHT22;41913;51.030;3.706;2023-06-24T09:17:28;23.60;90.80
56046;DHT22;41913;51.030;3.706;2023-06-24T09:20:03;23.70;90.60
56046;DHT22;41913;51.030;3.706;2023-06-24T09:22:30;23.70;89.90
56046;DHT22;41913;51.030;3.706;2023-06-24T09:24:56;23.70;89.70
56046;DHT22;41913;51.030;3.706;2023-06-24T09:27:21;23.70;88.80
56046;DHT22;41913;51.030;3.706;2023-06-24T09:29:49;23.60;88.40
56046;DHT22;41913;51.030;3.706;2023-06-24T09:32:15;23.60;88.80
56046;DHT22;41913;51.030;3.706;2023-06-24T09:34:40;23.60;88.30
56046;DHT22;41913;51.030;3.706;2023-06-24T09:37:06;23.70;88.10
56046;DHT22;41913;51.030;3.706;2023-06-24T09:39:37;23.80;87.80
56046;DHT22;41913;51.030;3.706;2023-06-24T09:42:04;23.90;87.80
56046;DHT22;41913;51.030;3.706;2023-06-24T09:44:31;24.00;88.30
56046;DHT22;41913;51.030;3.706;2023-06-24T09:46:57;24.10;87.70
56046;DHT22;41913;51.030;3.706;2023-06-24T09:49:22;24.20;86.70
56046;DHT22;41913;51.030;3.706;2023-06-24T09:51:50;24.30;86.70
56046;DHT22;41913;51.030;3.706;2023-06-24T09:54:20;24.40;86.50
56046;DHT22;41913;51.030;3.706;2023-06-24T09:56:49;24.50;86.10
56046;DHT22;41913;51.030;3.706;2023-06-24T09:59:30;24.60;86.00
56046;DHT22;41913;51.030;3.706;2023-06-24T10:01:59;24.60;85.80
56046;DHT22;41913;51.030;3.706;2023-06-24T10:04:27;24.60;87.60
56046;DHT22;41913;51.030;3.706;2023-06-24T10:06:53;24.70;85.80
56046;DHT22;41913;51.030;3.706;2023-06-24T10:09:19;24.70;86.10
56046;DHT22;41913;51.030;3.706;2023-06-24T10:11:46;24.80;86.70
56046;DHT22;41913;51.030;3.706;2023-06-24T10:14:13;24.90;88.60
56046;DHT22;41913;51.030;3.706;2023-06-24T10:16:41;24.90;86.30
56046;DHT22;41913;51.030;3.706;2023-06-24T10:19:19;24.90;87.50
56046;DHT22;41913;51.030;3.706;2023-06-24T10:21:52;25.00;87.20
56046;DHT22;41913;51.030;3.706;2023-06-24T10:24:31;25.00;86.10
56046;DHT22;41913;51.030;3.706;2023-06-24T10:27:03;25.00;85.10
56046;DHT22;41913;51.030;3.706;2023-06-24T10:29:37;25.00;87.50
56046;DHT22;41913;51.030;3.706;2023-06-24T10:32:12;25.10;86.10
56046;DHT22;41913;51.030;3.706;2023-06-24T10:39:48;25.10;85.70
56046;DHT22;41913;51.030;3.706;2023-06-24T10:42:32;25.20;85.60
56046;DHT22;41913;51.030;3.706;2023-06-24T10:45:00;25.10;85.20
56046;DHT22;41913;51.030;3.706;2023-06-24T10:47:28;25.20;83.90
56046;DHT22;41913;51.030;3.706;2023-06-24T10:49:56;25.20;84.40
56046;DHT22;41913;51.030;3.706;2023-06-24T10:52:22;25.20;84.50
56046;DHT22;41913;51.030;3.706;2023-06-24T10:54:50;25.20;84.10
56046;DHT22;41913;51.030;3.706;2023-06-24T10:57:24;25.20;83.60
56046;DHT22;41913;51.030;3.706;2023-06-24T10:59:54;25.20;85.50
56046;DHT22;41913;51.030;3.706;2023-06-24T11:02:24;25.20;85.50
56046;DHT22;41913;51.030;3.706;2023-06-24T11:04:56;25.20;84.90
56046;DHT22;41913;51.030;3.706;2023-06-24T11:07:29;25.30;85.10
56046;DHT22;41913;51.030;3.706;2023-06-24T11:12:52;25.30;85.30
56046;DHT22;41913;51.030;3.706;2023-06-24T11:15:20;25.30;85.60
56046;DHT22;41913;51.030;3.706;2023-06-24T11:17:51;25.30;85.30
56046;DHT22;41913;51.030;3.706;2023-06-24T11:20:22;25.30;85.10
56046;DHT22;41913;51.030;3.706;2023-06-24T11:22:48;25.30;85.70
56046;DHT22;41913;51.030;3.706;2023-06-24T11:25:24;25.30;84.80
56046;DHT22;41913;51.030;3.706;2023-06-24T11:27:51;25.30;85.10
56046;DHT22;41913;51.030;3.706;2023-06-24T11:30:19;25.40;85.30
56046;DHT22;41913;51.030;3.706;2023-06-24T11:32:45;25.40;85.30
56046;DHT22;41913;51.030;3.706;2023-06-24T11:35:13;25.40;85.60
56046;DHT22;41913;51.030;3.706;2023-06-24T11:37:46;25.40;85.40
56046;DHT22;41913;51.030;3.706;2023-06-24T11:40:13;25.40;85.10
56046;DHT22;41913;51.030;3.706;2023-06-24T11:42:40;25.40;85.20
56046;DHT22;41913;51.030;3.706;2023-06-24T11:45:08;25.40;85.20
56046;DHT22;41913;51.030;3.706;2023-06-24T11:47:35;25.40;85.10
56046;DHT22;41913;51.030;3.706;2023-06-24T11:50:03;25.40;85.10
56046;DHT22;41913;51.030;3.706;2023-06-24T11:52:41;25.40;85.00
56046;DHT22;41913;51.030;3.706;2023-06-24T11:55:20;25.40;84.90
56046;DHT22;41913;51.030;3.706;2023-06-24T11:57:52;25.40;85.50
56046;DHT22;41913;51.030;3.706;2023-06-24T12:02:54;25.40;84.70
56046;DHT22;41913;51.030;3.706;2023-06-24T12:05:25;25.40;84.60
56046;DHT22;41913;51.030;3.706;2023-06-24T12:08:06;25.50;84.60
56046;DHT22;41913;51.030;3.706;2023-06-24T12:10:50;25.60;84.30
56046;DHT22;41913;51.030;3.706;2023-06-24T12:13:15;25.60;84.20
56046;DHT22;41913;51.030;3.706;2023-06-24T12:15:41;25.50;84.50
56046;DHT22;41913;51.030;3.706;2023-06-24T12:18:09;25.40;84.30
56046;DHT22;41913;51.030;3.706;2023-06-24T12:20:36;25.40;84.10
56046;DHT22;41913;51.030;3.706;2023-06-24T12:23:08;25.40;84.30
56046;DHT22;41913;51.030;3.706;2023-06-24T12:25:34;25.30;84.30
56046;DHT22;41913;51.030;3.706;2023-06-24T12:28:00;25.30;84.10
56046;DHT22;41913;51.030;3.706;2023-06-24T12:30:27;25.20;84.70
56046;DHT22;41913;51.030;3.706;2023-06-24T12:32:53;25.10;84.70
56046;DHT22;41913;51.030;3.706;2023-06-24T12:35:19;25.10;84.60
56046;DHT22;41913;51.030;3.706;2023-06-24T12:37:46;25.00;84.70
56046;DHT22;41913;51.030;3.706;2023-06-24T12:40:15;25.00;84.90
56046;DHT22;41913;51.030;3.706;2023-06-24T12:42:44;24.90;84.70
56046;DHT22;41913;51.030;3.706;2023-06-24T12:45:15;24.90;85.00
56046;DHT22;41913;51.030;3.706;2023-06-24T12:47:42;25.00;84.90
56046;DHT22;41913;51.030;3.706;2023-06-24T12:50:09;25.00;84.40
56046;DHT22;41913;51.030;3.706;2023-06-24T12:52:36;25.00;84.20
56046;DHT22;41913;51.030;3.706;2023-06-24T12:55:03;25.00;84.50
56046;DHT22;41913;51.030;3.706;2023-06-24T12:57:35;25.00;85.10
56046;DHT22;41913;51.030;3.706;2023-06-24T13:00:01;25.00;85.10
56046;DHT22;41913;51.030;3.706;2023-06-24T13:02:29;25.00;85.10
56046;DHT22;41913;51.030;3.706;2023-06-24T13:04:54;25.00;85.20
56046;DHT22;41913;51.030;3.706;2023-06-24T13:07:21;25.00;85.20
56046;DHT22;41913;51.030;3.706;2023-06-24T13:09:48;25.00;85.60
56046;DHT22;41913;51.030;3.706;2023-06-24T13:12:13;25.00;84.80
56046;DHT22;41913;51.030;3.706;2023-06-24T13:14:39;24.90;85.50
56046;DHT22;41913;51.030;3.706;2023-06-24T13:17:05;24.90;85.20
56046;DHT22;41913;51.030;3.706;2023-06-24T13:19:30;24.90;85.10
56046;DHT22;41913;51.030;3.706;2023-06-24T13:21:59;24.90;85.20
56046;DHT22;41913;51.030;3.706;2023-06-24T13:24:26;24.90;85.30
56046;DHT22;41913;51.030;3.706;2023-06-24T13:26:55;24.90;85.60
56046;DHT22;41913;51.030;3.706;2023-06-24T13:29:21;24.90;85.50
56046;DHT22;41913;51.030;3.706;2023-06-24T13:31:48;24.90;85.70
56046;DHT22;41913;51.030;3.706;2023-06-24T13:34:13;24.90;85.70
56046;DHT22;41913;51.030;3.706;2023-06-24T13:36:41;24.90;85.80
56046;DHT22;41913;51.030;3.706;2023-06-24T13:39:09;24.90;86.00
56046;DHT22;41913;51.030;3.706;2023-06-24T13:41:37;24.90;85.80
56046;DHT22;41913;51.030;3.706;2023-06-24T13:44:04;24.90;85.90
56046;DHT22;41913;51.030;3.706;2023-06-24T13:46:31;24.90;85.90
56046;DHT22;41913;51.030;3.706;2023-06-24T13:48:59;24.90;85.90
56046;DHT22;41913;51.030;3.706;2023-06-24T13:51:25;24.90;85.90
56046;DHT22;41913;51.030;3.706;2023-06-24T13:53:53;24.90;86.10
56046;DHT22;41913;51.030;3.706;2023-06-24T13:56:25;24.90;86.00
56046;DHT22;41913;51.030;3.706;2023-06-24T13:58:52;24.90;86.20
56046;DHT22;41913;51.030;3.706;2023-06-24T14:01:19;24.90;85.90
56046;DHT22;41913;51.030;3.706;2023-06-24T14:03:45;24.90;86.30
56046;DHT22;41913;51.030;3.706;2023-06-24T14:06:14;24.90;86.20
56046;DHT22;41913;51.030;3.706;2023-06-24T14:08:43;24.90;86.40
56046;DHT22;41913;51.030;3.706;2023-06-24T14:11:09;24.90;86.60
56046;DHT22;41913;51.030;3.706;2023-06-24T14:13:35;24.90;87.40
56046;DHT22;41913;51.030;3.706;2023-06-24T14:16:02;24.90;87.00
56046;DHT22;41913;51.030;3.706;2023-06-24T14:18:28;24.90;87.10
56046;DHT22;41913;51.030;3.706;2023-06-24T14:21:01;24.90;87.40
56046;DHT22;41913;51.030;3.706;2023-06-24T14:23:28;24.90;87.50
56046;DHT22;41913;51.030;3.706;2023-06-24T14:25:53;25.00;87.80
56046;DHT22;41913;51.030;3.706;2023-06-24T14:28:20;25.00;87.90
56046;DHT22;41913;51.030;3.706;2023-06-24T14:30:46;25.00;88.30
56046;DHT22;41913;51.030;3.706;2023-06-24T14:33:12;25.00;88.40
56046;DHT22;41913;51.030;3.706;2023-06-24T14:35:38;25.00;88.20
56046;DHT22;41913;51.030;3.706;2023-06-24T14:38:04;25.00;88.30
56046;DHT22;41913;51.030;3.706;2023-06-24T14:40:31;25.00;88.40
56046;DHT22;41913;51.030;3.706;2023-06-24T14:42:57;24.90;88.40
56046;DHT22;41913;51.030;3.706;2023-06-24T14:45:23;24.90;88.10
56046;DHT22;41913;51.030;3.706;2023-06-24T14:47:48;24.90;88.30
56046;DHT22;41913;51.030;3.706;2023-06-24T14:50:14;24.90;88.40
56046;DHT22;41913;51.030;3.706;2023-06-24T14:52:41;24.90;88.30
56046;DHT22;41913;51.030;3.706;2023-06-24T14:55:07;24.90;88.60
56046;DHT22;41913;51.030;3.706;2023-06-24T14:57:33;24.90;88.50
56046;DHT22;41913;51.030;3.706;2023-06-24T14:59:59;24.90;88.50
56046;DHT22;41913;51.030;3.706;2023-06-24T15:02:24;24.90;88.60
56046;DHT22;41913;51.030;3.706;2023-06-24T15:04:51;24.90;88.50
56046;DHT22;41913;51.030;3.706;2023-06-24T15:07:18;24.90;88.60
56046;DHT22;41913;51.030;3.706;2023-06-24T15:09:44;24.90;88.60
56046;DHT22;41913;51.030;3.706;2023-06-24T15:12:10;24.90;88.50
56046;DHT22;41913;51.030;3.706;2023-06-24T15:14:36;24.90;88.60
56046;DHT22;41913;51.030;3.706;2023-06-24T15:17:01;24.90;88.60
56046;DHT22;41913;51.030;3.706;2023-06-24T15:19:27;24.90;88.60
56046;DHT22;41913;51.030;3.706;2023-06-24T15:21:53;24.90;88.60
56046;DHT22;41913;51.030;3.706;2023-06-24T15:24:19;24.80;88.50
56046;DHT22;41913;51.030;3.706;2023-06-24T15:26:45;24.90;88.50
56046;DHT22;41913;51.030;3.706;2023-06-24T15:29:11;24.90;88.30
56046;DHT22;41913;51.030;3.706;2023-06-24T15:31:37;24.90;88.40
56046;DHT22;41913;51.030;3.706;2023-06-24T15:34:02;24.90;88.40
56046;DHT22;41913;51.030;3.706;2023-06-24T15:36:28;24.90;88.60
56046;DHT22;41913;51.030;3.706;2023-06-24T15:38:55;24.80;88.40
56046;DHT22;41913;51.030;3.706;2023-06-24T15:41:21;24.90;88.40
56046;DHT22;41913;51.030;3.706;2023-06-24T15:43:47;24.90;88.40
56046;DHT22;41913;51.030;3.706;2023-06-24T15:46:12;24.90;88.40
56046;DHT22;41913;51.030;3.706;2023-06-24T15:48:38;24.90;88.50
56046;DHT22;41913;51.030;3.706;2023-06-24T15:51:04;24.90;88.30